CheckWX is a tool to help pilots better visualize weather data.  It is not intended as a substitute for an official pre-flight weather briefing.

03:23:58 UTC

KGCY METAR
Greeneville-Greene County Municipal Airport
Greeneville, Tennessee, USA
Current

29 mins ago

KGCY 270255Z AUTO 20004KT 10SM SCT080 25/16 A3007 RMK A01
Observed
May-27 @ 02:55 UTC
Wind
  • 200° at 4 KTS
Visibility
10 SM
Flight Rules
VFR
Cloud Levels
  • Scattered at 8,000' AGL
Temperature
25°C / 77°F
Dewpoint
16°C / 61°F
Humidity
57%
Altimeter
30.07" Hg
Pressure
1018.32 hPa
Previous

49 mins ago

KGCY 270235Z AUTO 21005KT 10SM CLR 25/16 A3009 RMK A01
Observed
May-27 @ 02:35 UTC
Wind
  • 210° at 5 KTS
Visibility
10 SM
Flight Rules
VFR
Cloud Levels
  • Clear skies
Temperature
25°C / 77°F
Dewpoint
16°C / 61°F
Humidity
57%
Altimeter
30.09" Hg
Pressure
1018.92 hPa
Previous

1 hour ago

KGCY 270215Z AUTO VRB04KT 10SM SCT080 25/16 A3008 RMK A01
Observed
May-27 @ 02:15 UTC
Wind
  • Variable at 4 KTS
Visibility
10 SM
Flight Rules
VFR
Cloud Levels
  • Scattered at 8,000' AGL
Temperature
25°C / 77°F
Dewpoint
16°C / 61°F
Humidity
57%
Altimeter
30.08" Hg
Pressure
1018.62 hPa